Time;durP1;ratioP1;P1;durP2;ratioP2;P2;SDS_P1;SDS_P2;PMS_P1;PMS_P2;Temp;Humidity;BMP_temperature;BMP_pressure;BME280_temperature;BME280_humidity;BME280_pressure;Samples;Min_cycle;Max_cycle;Signal;HPM_P1;HPM_P2
2023/12/25 00:01:47;;;;;;;0.60;0.60;;;9.90;99.90;;;;;;5013629;28;20200;-81
2023/12/25 00:04:13;;;;;;;0.70;0.70;;;9.90;73.20;;;;;;5012686;28;20184;-82
2023/12/25 00:06:38;;;;;;;0.57;0.57;;;9.90;93.40;;;;;;5012018;28;20224;-81
2023/12/25 00:09:04;;;;;;;0.70;0.70;;;9.90;39.20;;;;;;5013170;28;20751;-80
2023/12/25 00:11:29;;;;;;;0.60;0.60;;;9.90;52.90;;;;;;5012945;28;20630;-81
2023/12/25 00:13:55;;;;;;;0.60;0.60;;;10.00;27.90;;;;;;5032233;28;20177;-80
2023/12/25 00:16:24;;;;;;;0.70;0.70;;;10.10;19.70;;;;;;5032502;28;20701;-81
2023/12/25 00:18:50;;;;;;;0.70;0.70;;;10.00;7.00;;;;;;5019318;28;20228;-79
2023/12/25 00:21:15;;;;;;;0.70;0.70;;;10.00;1.00;;;;;;5035408;28;20231;-82
2023/12/25 00:23:41;;;;;;;0.60;0.60;;;10.00;1.00;;;;;;5018068;28;20187;-81
2023/12/25 00:26:08;;;;;;;0.70;0.70;;;10.00;1.00;;;;;;5014278;28;20192;-83
2023/12/25 00:28:33;;;;;;;0.60;0.60;;;10.00;1.00;;;;;;5017277;28;20291;-82
2023/12/25 00:30:59;;;;;;;0.53;0.53;;;10.10;1.00;;;;;;5017419;28;20204;-81
2023/12/25 00:33:24;;;;;;;0.70;0.70;;;10.10;1.00;;;;;;5017121;28;20211;-81
2023/12/25 00:35:50;;;;;;;0.60;0.60;;;10.10;1.00;;;;;;5015965;28;20200;-80
2023/12/25 00:38:15;;;;;;;0.70;0.70;;;10.10;1.00;;;;;;5014594;28;20243;-82
2023/12/25 00:40:41;;;;;;;0.67;0.67;;;10.20;1.00;;;;;;5016704;28;20215;-81
2023/12/25 00:43:08;;;;;;;0.60;0.60;;;10.20;1.00;;;;;;5015774;28;20196;-82
2023/12/25 00:45:34;;;;;;;0.70;0.70;;;10.20;1.00;;;;;;5013725;28;20193;-82
2023/12/25 00:48:00;;;;;;;0.63;0.63;;;10.20;1.00;;;;;;5015844;28;20762;-83
2023/12/25 00:50:25;;;;;;;0.63;0.63;;;10.20;1.00;;;;;;5021590;28;20211;-79
2023/12/25 00:52:51;;;;;;;0.60;0.60;;;10.20;1.00;;;;;;5036832;28;20188;-79
2023/12/25 00:55:17;;;;;;;0.70;0.70;;;10.20;1.00;;;;;;5036828;28;20606;-80
2023/12/25 00:57:42;;;;;;;0.40;0.40;;;10.10;1.00;;;;;;5036944;28;20263;-79
2023/12/25 01:00:08;;;;;;;0.60;0.60;;;10.00;1.00;;;;;;5037191;28;20161;-79
2023/12/25 01:02:34;;;;;;;0.60;0.60;;;10.00;1.00;;;;;;5036529;28;20184;-81
2023/12/25 01:04:59;;;;;;;0.60;0.60;;;9.90;1.00;;;;;;5019871;28;20514;-82
2023/12/25 01:07:25;;;;;;;0.70;0.70;;;10.00;1.00;;;;;;5018799;28;20215;-81
2023/12/25 01:09:50;;;;;;;0.60;0.60;;;10.00;1.00;;;;;;5023568;28;20230;-82
2023/12/25 01:12:16;;;;;;;0.60;0.60;;;9.90;1.00;;;;;;5038375;28;20645;-83
2023/12/25 01:14:45;;;;;;;0.67;0.67;;;9.90;1.00;;;;;;5037571;28;20610;-82
2023/12/25 01:17:11;;;;;;;0.60;0.60;;;9.90;1.00;;;;;;5038081;28;20223;-81
2023/12/25 01:19:36;;;;;;;0.60;0.60;;;9.90;1.00;;;;;;5038078;28;20168;-80
2023/12/25 01:22:03;;;;;;;0.60;0.60;;;9.90;1.00;;;;;;5037818;28;20187;-82
2023/12/25 01:24:29;;;;;;;0.57;0.57;;;9.90;1.00;;;;;;5037120;28;20176;-80
2023/12/25 01:26:54;;;;;;;0.60;0.60;;;9.90;1.00;;;;;;5037224;28;20247;-83
2023/12/25 01:29:20;;;;;;;0.70;0.70;;;9.90;1.00;;;;;;5036102;28;20207;-82
2023/12/25 01:31:45;;;;;;;0.60;0.60;;;9.90;1.00;;;;;;5037776;28;20267;-83
2023/12/25 01:34:11;;;;;;;0.60;0.60;;;9.80;1.00;;;;;;5039765;28;20552;-79
2023/12/25 01:36:38;;;;;;;0.70;0.70;;;9.80;1.00;;;;;;5042784;28;20513;-81
2023/12/25 01:39:04;;;;;;;0.60;0.60;;;9.80;1.00;;;;;;5042615;28;20184;-82
2023/12/25 01:41:29;;;;;;;0.70;0.70;;;9.90;1.00;;;;;;5036474;28;20180;-81
2023/12/25 01:43:55;;;;;;;0.60;0.60;;;9.80;1.00;;;;;;5036416;28;20172;-82
2023/12/25 01:46:21;;;;;;;0.60;0.60;;;9.90;1.00;;;;;;5035771;28;20208;-81
2023/12/25 01:48:50;;;;;;;0.67;0.67;;;9.90;1.00;;;;;;5037619;28;20772;-82
2023/12/25 01:51:21;;;;;;;0.60;0.60;;;9.90;1.00;;;;;;5040020;28;20748;-81
2023/12/25 01:53:48;;;;;;;0.63;0.63;;;9.80;1.00;;;;;;5040389;28;20172;-81
2023/12/25 01:56:13;;;;;;;0.60;0.60;;;9.80;1.00;;;;;;5041025;28;20196;-83
2023/12/25 01:58:39;;;;;;;0.57;0.57;;;9.90;1.00;;;;;;5040657;28;20172;-81
2023/12/25 02:01:04;;;;;;;0.60;0.60;;;9.80;1.00;;;;;;5042292;28;20664;-82
2023/12/25 02:03:30;;;;;;;0.70;0.70;;;9.80;1.00;;;;;;5051611;28;20561;-82
2023/12/25 02:05:56;;;;;;;0.70;0.70;;;9.80;1.00;;;;;;5050020;28;20199;-82
2023/12/25 02:08:23;;;;;;;0.60;0.60;;;9.70;1.00;;;;;;5054765;28;20187;-81
2023/12/25 02:10:48;;;;;;;0.60;0.60;;;9.70;1.00;;;;;;5045275;28;20188;-82
2023/12/25 02:13:14;;;;;;;0.60;0.60;;;9.70;1.00;;;;;;5049191;28;20726;-83
2023/12/25 02:15:40;;;;;;;0.60;0.60;;;9.80;1.00;;;;;;5050031;28;20199;-82
2023/12/25 02:18:07;;;;;;;0.70;0.70;;;9.70;1.00;;;;;;5059563;28;20207;-82
2023/12/25 02:20:33;;;;;;;0.60;0.60;;;9.70;1.00;;;;;;5058264;28;20648;-81
2023/12/25 02:23:01;;;;;;;0.60;0.60;;;9.70;1.00;;;;;;5058965;28;20884;-82
2023/12/25 02:25:30;;;;;;;0.70;0.70;;;9.60;1.00;;;;;;5059092;28;20176;-81
2023/12/25 02:27:55;;;;;;;0.70;0.70;;;9.60;1.00;;;;;;5059624;28;20167;-81
2023/12/25 02:30:21;;;;;;;0.60;0.60;;;9.60;1.00;;;;;;5056745;28;20205;-81
2023/12/25 02:32:46;;;;;;;0.70;0.70;;;9.60;1.00;;;;;;5050677;28;20215;-82
2023/12/25 02:35:12;;;;;;;0.50;0.50;;;9.60;1.00;;;;;;5059030;28;20175;-82
2023/12/25 02:37:38;;;;;;;0.60;0.60;;;9.50;1.00;;;;;;5058510;28;20195;-81
2023/12/25 02:40:05;;;;;;;0.67;0.67;;;9.50;1.00;;;;;;5059316;28;20182;-83
2023/12/25 02:42:30;;;;;;;0.60;0.60;;;9.50;1.00;;;;;;5059727;28;20785;-83
2023/12/25 02:44:56;;;;;;;0.60;0.60;;;9.50;1.00;;;;;;5058197;28;20171;-82
2023/12/25 02:47:22;;;;;;;0.70;0.70;;;9.50;1.00;;;;;;5059168;28;20195;-81
2023/12/25 02:49:47;;;;;;;0.53;0.53;;;9.50;1.00;;;;;;5063433;28;20305;-81
2023/12/25 02:52:13;;;;;;;0.60;0.60;;;9.40;1.00;;;;;;5068497;28;20190;-81
2023/12/25 02:54:38;;;;;;;0.60;0.60;;;9.50;1.00;;;;;;5070748;28;20178;-79
2023/12/25 02:57:04;;;;;;;0.60;0.60;;;9.50;1.00;;;;;;5072566;28;20191;-82
2023/12/25 02:59:30;;;;;;;0.70;0.70;;;9.60;1.00;;;;;;5059024;28;20203;-82
2023/12/25 03:01:55;;;;;;;0.70;0.70;;;9.50;1.00;;;;;;5059677;28;20199;-82
2023/12/25 03:04:21;;;;;;;0.70;0.70;;;9.50;1.00;;;;;;5059534;28;20179;-83
2023/12/25 03:06:46;;;;;;;0.60;0.60;;;9.50;1.00;;;;;;5058715;28;20228;-82
2023/12/25 03:09:12;;;;;;;0.70;0.70;;;9.40;1.00;;;;;;5059195;28;20199;-81
2023/12/25 03:11:38;;;;;;;0.50;0.50;;;9.50;1.00;;;;;;5058680;28;20175;-82
2023/12/25 03:14:03;;;;;;;0.70;0.70;;;9.50;1.00;;;;;;5057951;28;20189;-81
2023/12/25 03:16:29;;;;;;;0.57;0.57;;;9.50;1.00;;;;;;5058333;28;20206;-81
2023/12/25 03:18:54;;;;;;;0.60;0.60;;;9.50;1.00;;;;;;5056499;28;20273;-81
2023/12/25 03:21:21;;;;;;;0.63;0.63;;;9.60;1.00;;;;;;5057825;28;20183;-81
2023/12/25 03:23:47;;;;;;;0.73;0.73;;;9.60;1.00;;;;;;5057827;28;20171;-81
2023/12/25 03:26:12;;;;;;;0.67;0.67;;;9.70;1.00;;;;;;5057901;28;20226;-82
2023/12/25 03:28:39;;;;;;;0.70;0.70;;;9.70;1.00;;;;;;5057949;28;20246;-82
2023/12/25 03:31:04;;;;;;;0.60;0.60;;;9.70;1.00;;;;;;5057227;28;20183;-82
2023/12/25 03:33:30;;;;;;;0.70;0.70;;;9.70;1.00;;;;;;5057696;28;20703;-81
2023/12/25 03:35:55;;;;;;;0.70;0.70;;;9.60;1.00;;;;;;5055167;28;20199;-82
2023/12/25 03:38:21;;;;;;;0.60;0.60;;;9.60;1.00;;;;;;5057133;28;20171;-82
2023/12/25 03:40:47;;;;;;;0.60;0.60;;;9.60;1.00;;;;;;5056460;28;20175;-82
2023/12/25 03:43:12;;;;;;;0.70;0.70;;;9.60;1.00;;;;;;5057896;28;20221;-81
2023/12/25 03:45:39;;;;;;;0.60;0.60;;;9.60;1.00;;;;;;5057648;28;20167;-82
2023/12/25 03:48:05;;;;;;;0.70;0.70;;;9.50;1.00;;;;;;5058129;28;20262;-81
2023/12/25 03:50:30;;;;;;;0.60;0.60;;;9.60;1.00;;;;;;5057997;28;20227;-82
2023/12/25 03:52:56;;;;;;;0.60;0.60;;;9.50;1.00;;;;;;5058158;28;20179;-81
2023/12/25 03:55:21;;;;;;;0.60;0.60;;;9.50;1.00;;;;;;5057248;28;20175;-83
2023/12/25 03:57:47;;;;;;;0.60;0.60;;;9.50;1.00;;;;;;5058549;28;20289;-82
2023/12/25 04:00:13;;;;;;;0.60;0.60;;;9.40;1.00;;;;;;5058241;28;20178;-82
2023/12/25 04:02:38;;;;;;;0.63;0.63;;;9.50;1.00;;;;;;5058236;28;20544;-83
2023/12/25 04:05:06;;;;;;;0.80;0.80;;;9.50;1.00;;;;;;5057440;28;20171;-80
2023/12/25 04:07:31;;;;;;;0.60;0.60;;;9.50;1.00;;;;;;5057409;28;20195;-82
2023/12/25 04:09:58;;;;;;;0.70;0.70;;;9.40;1.00;;;;;;5058170;28;20237;-82
2023/12/25 04:12:23;;;;;;;0.60;0.60;;;9.40;1.00;;;;;;5063483;28;20198;-80
2023/12/25 04:14:49;;;;;;;0.73;0.73;;;9.40;1.00;;;;;;5068972;28;20172;-81
2023/12/25 04:17:14;;;;;;;0.70;0.70;;;9.40;1.00;;;;;;5067878;28;20221;-79
2023/12/25 04:19:41;;;;;;;0.57;0.57;;;9.40;1.00;;;;;;5067520;28;20183;-80
2023/12/25 04:22:06;;;;;;;0.70;0.70;;;9.40;1.00;;;;;;5065334;28;20175;-79
2023/12/25 04:24:32;;;;;;;0.50;0.50;;;9.50;1.00;;;;;;5053087;28;20190;-81
2023/12/25 04:26:57;;;;;;;0.70;0.70;;;9.50;1.00;;;;;;5052109;28;20605;-80
2023/12/25 04:29:23;;;;;;;0.70;0.70;;;9.40;1.00;;;;;;5052615;28;20229;-82
2023/12/25 04:31:49;;;;;;;0.60;0.60;;;9.30;1.00;;;;;;5052151;28;20190;-80
2023/12/25 04:34:14;;;;;;;0.60;0.60;;;9.20;1.00;;;;;;5052414;28;20270;-80
2023/12/25 04:36:40;;;;;;;0.60;0.60;;;9.30;1.00;;;;;;5052787;28;20209;-81
2023/12/25 04:39:06;;;;;;;0.70;0.70;;;9.30;1.00;;;;;;5054425;28;20178;-81
2023/12/25 04:41:31;;;;;;;0.70;0.70;;;9.40;1.00;;;;;;5055292;28;20167;-80
2023/12/25 04:43:57;;;;;;;0.70;0.70;;;9.40;1.00;;;;;;5065928;28;20186;-79
2023/12/25 04:46:22;;;;;;;0.70;0.70;;;9.30;1.00;;;;;;5068861;28;20344;-80
2023/12/25 04:48:48;;;;;;;0.70;0.70;;;9.40;1.00;;;;;;5055495;28;20207;-81
2023/12/25 04:51:14;;;;;;;0.60;0.60;;;9.40;1.00;;;;;;5053775;28;20548;-82
2023/12/25 04:53:39;;;;;;;0.70;0.70;;;9.50;1.00;;;;;;5054724;28;20175;-82
2023/12/25 04:56:08;;;;;;;0.70;0.70;;;9.50;1.00;;;;;;5054735;28;20199;-81
2023/12/25 04:58:33;;;;;;;0.63;0.63;;;9.50;1.00;;;;;;5055373;28;20179;-82
2023/12/25 05:00:59;;;;;;;0.50;0.50;;;9.40;1.00;;;;;;5054723;28;20590;-82
2023/12/25 05:03:25;;;;;;;0.70;0.70;;;9.40;1.00;;;;;;5055327;28;20179;-80
2023/12/25 05:05:50;;;;;;;0.60;0.60;;;9.30;1.00;;;;;;5054038;28;20237;-82
2023/12/25 05:08:18;;;;;;;0.63;0.63;;;9.30;1.00;;;;;;5055371;28;20202;-81
2023/12/25 05:10:44;;;;;;;0.67;0.67;;;9.30;1.00;;;;;;5054192;28;20202;-82
2023/12/25 05:13:10;;;;;;;0.60;0.60;;;9.40;1.00;;;;;;5054356;28;20179;-82
2023/12/25 05:15:35;;;;;;;0.70;0.70;;;9.40;1.00;;;;;;5054624;28;20266;-81
2023/12/25 05:18:01;;;;;;;0.60;0.60;;;9.30;1.00;;;;;;5054583;28;20175;-80
2023/12/25 05:20:27;;;;;;;0.53;0.53;;;9.30;1.00;;;;;;5054568;28;20288;-81
2023/12/25 05:22:53;;;;;;;0.50;0.50;;;9.30;1.00;;;;;;5053860;28;20167;-82
2023/12/25 05:25:18;;;;;;;0.60;0.60;;;9.30;1.00;;;;;;5058434;28;20179;-81
2023/12/25 05:27:44;;;;;;;0.70;0.70;;;9.20;1.00;;;;;;5053112;28;20223;-83
2023/12/25 05:30:10;;;;;;;0.60;0.60;;;9.20;1.00;;;;;;5050353;28;20230;-82
2023/12/25 05:32:36;;;;;;;0.70;0.70;;;9.10;1.00;;;;;;5058609;28;20179;-82
2023/12/25 05:35:04;;;;;;;0.70;0.70;;;9.00;1.00;;;;;;5062310;28;20175;-80
2023/12/25 05:37:30;;;;;;;0.50;0.50;;;9.10;1.00;;;;;;5044304;28;20201;-81
2023/12/25 05:39:55;;;;;;;0.60;0.60;;;9.00;1.00;;;;;;5023859;28;20271;-81
2023/12/25 05:42:21;;;;;;;0.60;0.60;;;9.00;1.00;;;;;;5039095;28;20262;-82
2023/12/25 05:44:46;;;;;;;0.70;0.70;;;9.00;1.00;;;;;;5039228;28;20180;-82
2023/12/25 05:47:13;;;;;;;0.70;0.70;;;8.90;1.00;;;;;;5038430;28;20203;-82
2023/12/25 05:49:40;;;;;;;0.60;0.60;;;8.90;1.00;;;;;;5038634;28;20295;-82
2023/12/25 05:52:05;;;;;;;0.60;0.60;;;8.90;1.00;;;;;;5038373;28;20652;-81
2023/12/25 05:54:31;;;;;;;0.70;0.70;;;8.80;1.00;;;;;;5039807;28;20191;-81
2023/12/25 05:56:57;;;;;;;0.60;0.60;;;8.80;1.00;;;;;;5039500;28;20275;-82
2023/12/25 05:59:23;;;;;;;0.60;0.60;;;8.90;1.00;;;;;;5039158;28;20176;-81
2023/12/25 06:01:48;;;;;;;0.57;0.57;;;9.10;1.00;;;;;;5038714;28;20271;-82
2023/12/25 06:04:14;;;;;;;0.60;0.60;;;8.90;1.00;;;;;;5038605;28;20183;-82
2023/12/25 06:06:40;;;;;;;0.50;0.50;;;8.90;1.00;;;;;;5038722;28;20287;-83
2023/12/25 06:09:06;;;;;;;0.60;0.60;;;8.90;1.00;;;;;;5038765;28;20593;-82
2023/12/25 06:11:32;;;;;;;0.70;0.70;;;8.90;1.00;;;;;;5038485;28;20642;-80
2023/12/25 06:13:57;;;;;;;0.50;0.50;;;8.80;1.00;;;;;;5042545;28;20175;-80
2023/12/25 06:16:23;;;;;;;0.60;0.60;;;8.80;1.00;;;;;;5041147;28;20211;-81
2023/12/25 06:18:49;;;;;;;0.60;0.60;;;8.80;1.00;;;;;;5041101;28;20239;-82
2023/12/25 06:21:15;;;;;;;0.70;0.70;;;8.80;1.00;;;;;;5041663;28;20222;-82
2023/12/25 06:23:40;;;;;;;0.67;0.67;;;8.70;1.00;;;;;;5041939;28;20184;-81
2023/12/25 06:26:06;;;;;;;0.50;0.50;;;8.70;1.00;;;;;;5041559;28;20563;-81
2023/12/25 06:28:32;;;;;;;0.60;0.60;;;8.70;1.00;;;;;;5042369;28;20241;-80
2023/12/25 06:30:57;;;;;;;0.70;0.70;;;8.70;1.00;;;;;;5040740;28;20172;-82
2023/12/25 06:33:23;;;;;;;0.73;0.73;;;8.60;1.00;;;;;;5041533;28;20179;-84
2023/12/25 06:35:49;;;;;;;0.70;0.70;;;8.50;1.00;;;;;;5039216;28;20257;-84
2023/12/25 06:38:14;;;;;;;0.60;0.60;;;8.50;1.00;;;;;;5039270;28;20187;-82
2023/12/25 06:40:40;;;;;;;0.63;0.63;;;8.50;1.00;;;;;;5038913;28;20191;-82
2023/12/25 06:43:06;;;;;;;0.70;0.70;;;8.40;1.00;;;;;;5051628;28;20167;-81
2023/12/25 06:45:32;;;;;;;0.70;0.70;;;8.40;1.00;;;;;;5044325;28;20204;-82
2023/12/25 06:47:57;;;;;;;0.63;0.63;;;8.40;1.00;;;;;;5043812;28;20237;-85
2023/12/25 06:50:23;;;;;;;0.70;0.70;;;8.40;1.00;;;;;;5043188;28;20222;-82
2023/12/25 06:52:48;;;;;;;0.67;0.67;;;8.50;1.00;;;;;;5044306;28;20164;-82
2023/12/25 06:55:14;;;;;;;0.70;0.70;;;8.40;1.00;;;;;;5044744;28;20203;-82
2023/12/25 06:57:40;;;;;;;0.63;0.63;;;8.50;1.00;;;;;;5043107;28;20224;-82
2023/12/25 07:00:06;;;;;;;0.70;0.70;;;8.50;1.00;;;;;;5054476;28;20597;-83
2023/12/25 07:02:31;;;;;;;0.60;0.60;;;8.40;1.00;;;;;;5062852;28;20195;-84
2023/12/25 07:04:57;;;;;;;0.70;0.70;;;8.40;1.00;;;;;;5058056;28;20175;-83
2023/12/25 07:07:22;;;;;;;0.70;0.70;;;8.30;1.00;;;;;;5055352;28;20191;-86
2023/12/25 07:09:48;;;;;;;0.60;0.60;;;8.50;1.00;;;;;;5060018;28;20210;-83
2023/12/25 07:12:14;;;;;;;0.40;0.40;;;8.40;1.00;;;;;;5062594;28;20499;-84
2023/12/25 07:14:42;;;;;;;0.60;0.60;;;8.40;1.00;;;;;;5029887;28;20187;-85
2023/12/25 07:17:08;;;;;;;0.50;0.50;;;8.30;1.00;;;;;;5054660;28;20412;-83
2023/12/25 07:19:34;;;;;;;0.50;0.50;;;8.40;1.00;;;;;;5056083;28;20196;-85
2023/12/25 07:22:01;;;;;;;0.57;0.57;;;8.40;1.00;;;;;;5056394;28;20175;-84
2023/12/25 07:24:28;;;;;;;0.50;0.50;;;8.50;1.00;;;;;;5051876;28;20188;-84
2023/12/25 07:26:53;;;;;;;0.63;0.63;;;8.50;1.00;;;;;;5045527;28;20211;-84
2023/12/25 07:29:20;;;;;;;0.50;0.50;;;8.50;1.00;;;;;;5042642;28;20218;-83
2023/12/25 07:31:45;;;;;;;0.60;0.60;;;8.60;1.00;;;;;;5049357;28;20184;-82
2023/12/25 07:34:11;;;;;;;0.70;0.70;;;8.70;1.00;;;;;;5047656;28;20215;-81
2023/12/25 07:36:36;;;;;;;0.63;0.63;;;8.70;1.00;;;;;;5044426;28;20204;-86
2023/12/25 07:39:03;;;;;;;0.60;0.60;;;8.70;1.00;;;;;;5038780;28;20183;-85
2023/12/25 07:41:30;;;;;;;0.70;0.70;;;8.70;1.00;;;;;;5035102;28;20573;-86
2023/12/25 07:44:00;;;;;;;0.50;0.50;;;8.90;1.00;;;;;;5029582;28;20180;-85
2023/12/25 07:46:26;;;;;;;0.60;0.60;;;8.70;1.00;;;;;;5027603;28;20196;-85
2023/12/25 07:48:52;;;;;;;0.50;0.50;;;8.80;1.00;;;;;;5037435;28;20258;-85
2023/12/25 07:51:17;;;;;;;0.60;0.60;;;8.90;1.00;;;;;;5038537;28;20514;-84
2023/12/25 07:53:46;;;;;;;0.60;0.60;;;8.90;1.00;;;;;;5037339;28;20241;-85
2023/12/25 07:56:12;;;;;;;0.60;0.60;;;8.80;1.00;;;;;;5036837;28;20692;-86
2023/12/25 07:58:37;;;;;;;0.73;0.73;;;8.90;1.00;;;;;;5040539;28;20172;-84
2023/12/25 08:01:03;;;;;;;0.63;0.63;;;8.90;1.00;;;;;;5026177;28;20565;-86
2023/12/25 08:03:29;;;;;;;0.60;0.60;;;9.00;1.00;;;;;;5025204;28;20176;-85
2023/12/25 08:05:54;;;;;;;0.60;0.60;;;9.00;1.00;;;;;;5032083;28;20219;-88
2023/12/25 08:08:29;;;;;;;0.70;0.70;;;9.00;1.00;;;;;;5141606;27;20562;-85
2023/12/25 08:10:54;;;;;;;0.60;0.60;;;9.10;1.00;;;;;;5139674;27;20619;-84
2023/12/25 08:13:20;;;;;;;0.60;0.60;;;9.00;1.00;;;;;;5143909;27;20176;-86
2023/12/25 08:15:46;;;;;;;0.60;0.60;;;9.00;1.00;;;;;;5138858;27;20209;-86
2023/12/25 08:18:12;;;;;;;0.70;0.70;;;9.00;1.00;;;;;;5137742;28;20650;-84
2023/12/25 08:20:37;;;;;;;0.60;0.60;;;9.00;1.00;;;;;;5130830;28;20172;-84
2023/12/25 08:23:05;;;;;;;0.60;0.60;;;9.00;1.00;;;;;;5126327;27;20196;-84
2023/12/25 08:25:31;;;;;;;0.70;0.70;;;9.00;1.00;;;;;;5128116;27;20179;-85
2023/12/25 08:27:56;;;;;;;0.63;0.63;;;9.10;1.00;;;;;;5139376;27;20191;-85
2023/12/25 08:30:22;;;;;;;0.60;0.60;;;9.60;1.00;;;;;;5130557;27;20166;-84
2023/12/25 08:32:47;;;;;;;0.60;0.60;;;9.30;1.00;;;;;;5133452;27;20534;-85
2023/12/25 08:35:13;;;;;;;0.60;0.60;;;9.30;1.00;;;;;;5130006;27;20227;-83
2023/12/25 08:37:39;;;;;;;0.50;0.50;;;9.30;1.00;;;;;;5128660;27;20212;-87
2023/12/25 08:40:05;;;;;;;0.60;0.60;;;9.30;1.00;;;;;;5129544;27;20177;-85
2023/12/25 08:42:32;;;;;;;0.60;0.60;;;9.30;1.00;;;;;;5126519;27;20786;-85
2023/12/25 08:44:58;;;;;;;0.50;0.50;;;9.40;1.00;;;;;;5142562;27;20173;-84
2023/12/25 08:47:24;;;;;;;0.60;0.60;;;9.40;1.00;;;;;;5139988;27;20564;-84
2023/12/25 08:49:50;;;;;;;0.60;0.60;;;9.50;1.00;;;;;;5139802;27;20176;-84
2023/12/25 08:52:17;;;;;;;0.63;0.63;;;9.50;1.00;;;;;;5139146;27;20207;-83
2023/12/25 08:54:42;;;;;;;0.57;0.57;;;9.50;1.00;;;;;;5139032;27;20258;-84
2023/12/25 08:57:08;;;;;;;0.60;0.60;;;9.50;1.00;;;;;;5138887;27;20270;-85
2023/12/25 08:59:34;;;;;;;0.50;0.50;;;9.50;1.00;;;;;;5138288;27;20169;-84
2023/12/25 09:01:59;;;;;;;0.60;0.60;;;9.60;1.00;;;;;;5139310;27;20712;-83
2023/12/25 09:04:25;;;;;;;0.60;0.60;;;9.80;1.00;;;;;;5138874;27;20192;-85
2023/12/25 09:06:50;;;;;;;0.60;0.60;;;10.00;1.00;;;;;;5136254;27;20204;-84
2023/12/25 09:09:16;;;;;;;0.53;0.53;;;10.10;1.00;;;;;;5134082;27;20196;-84
2023/12/25 09:11:41;;;;;;;0.47;0.47;;;10.10;1.00;;;;;;5131717;27;20180;-85
2023/12/25 09:14:07;;;;;;;0.50;0.50;;;10.40;1.00;;;;;;5130899;27;20834;-84
2023/12/25 09:16:34;;;;;;;0.50;0.50;;;10.50;1.00;;;;;;5130483;27;20202;-84
2023/12/25 09:19:00;;;;;;;0.57;0.57;;;10.40;1.00;;;;;;5120380;27;20592;-84
2023/12/25 09:21:26;;;;;;;0.50;0.50;;;10.30;1.00;;;;;;5116324;28;20169;-84
2023/12/25 09:23:51;;;;;;;0.60;0.60;;;10.10;1.00;;;;;;5118202;28;20199;-82
2023/12/25 09:26:20;;;;;;;0.60;0.60;;;10.00;1.00;;;;;;5118156;28;20197;-84
2023/12/25 09:28:46;;;;;;;0.60;0.60;;;10.00;1.00;;;;;;5125988;28;20193;-81
2023/12/25 09:31:13;;;;;;;0.57;0.57;;;10.10;1.00;;;;;;5139949;28;20179;-84
2023/12/25 09:33:39;;;;;;;0.60;0.60;;;10.10;1.00;;;;;;5110513;28;20192;-83
2023/12/25 09:36:06;;;;;;;0.60;0.60;;;10.30;1.00;;;;;;5099185;28;20186;-83
2023/12/25 09:38:32;;;;;;;0.60;0.60;;;10.20;1.00;;;;;;5100663;28;20170;-85
2023/12/25 09:40:57;;;;;;;0.67;0.67;;;10.40;1.00;;;;;;5104851;28;20181;-83
2023/12/25 09:43:23;;;;;;;0.53;0.53;;;10.60;1.00;;;;;;5104117;28;20170;-85
2023/12/25 09:45:50;;;;;;;0.57;0.57;;;10.80;1.00;;;;;;5104609;28;20675;-85
2023/12/25 09:48:17;;;;;;;0.53;0.53;;;11.20;1.00;;;;;;5104445;28;20224;-84
2023/12/25 09:50:43;;;;;;;0.60;0.60;;;12.60;1.00;;;;;;5104889;28;20170;-84
2023/12/25 09:53:09;;;;;;;0.40;0.40;;;13.20;1.00;;;;;;5107319;28;20169;-83
2023/12/25 09:55:34;;;;;;;0.50;0.50;;;12.40;1.00;;;;;;5115401;28;20170;-82
2023/12/25 09:58:03;;;;;;;0.40;0.40;;;12.60;1.00;;;;;;5114279;28;20184;-84
2023/12/25 10:00:29;;;;;;;0.50;0.50;;;12.50;1.00;;;;;;5107403;28;20173;-85
2023/12/25 10:02:57;;;;;;;0.50;0.50;;;12.40;1.00;;;;;;5108295;28;20193;-85
2023/12/25 10:05:22;;;;;;;0.60;0.60;;;12.80;1.00;;;;;;5105923;28;20174;-83
2023/12/25 10:07:48;;;;;;;0.50;0.50;;;12.30;1.00;;;;;;5105985;28;20205;-83
2023/12/25 10:10:14;;;;;;;0.50;0.50;;;12.70;1.00;;;;;;5105166;28;20197;-83
2023/12/25 10:12:44;;;;;;;0.60;0.60;;;12.70;1.00;;;;;;5105192;28;20186;-83
2023/12/25 10:15:13;;;;;;;0.50;0.50;;;12.40;1.00;;;;;;5105182;28;20185;-84
2023/12/25 10:17:39;;;;;;;0.50;0.50;;;12.50;1.00;;;;;;5114576;28;20220;-84
2023/12/25 10:20:08;;;;;;;0.50;0.50;;;12.80;1.00;;;;;;5121130;28;20651;-82
2023/12/25 10:22:37;;;;;;;0.47;0.47;;;14.30;1.00;;;;;;5097203;28;20277;-84
2023/12/25 10:25:11;;;;;;;0.60;0.60;;;13.50;1.00;;;;;;5095561;28;20186;-82
2023/12/25 10:27:38;;;;;;;0.40;0.40;;;12.90;1.00;;;;;;5105516;28;20221;-82
2023/12/25 10:30:13;;;;;;;0.50;0.50;;;12.20;1.00;;;;;;5094067;28;20611;-82
2023/12/25 10:32:40;;;;;;;0.50;0.50;;;12.50;1.00;;;;;;5097765;28;20203;-84
2023/12/25 10:35:17;;;;;;;0.50;0.50;;;13.50;1.00;;;;;;5108297;28;20180;-84
2023/12/25 10:37:45;;;;;;;0.40;0.40;;;12.90;1.00;;;;;;5104025;28;20197;-84
2023/12/25 10:40:27;;;;;;;0.40;0.40;;;12.70;1.00;;;;;;5105785;28;20207;-83
2023/12/25 10:42:55;;;;;;;0.57;0.57;;;12.60;1.00;;;;;;5104476;28;20178;-83
2023/12/25 10:45:23;;;;;;;0.50;0.50;;;12.20;1.00;;;;;;5103146;28;20219;-83
2023/12/25 10:47:54;;;;;;;0.57;0.57;;;12.30;1.00;;;;;;5104125;28;20206;-84
2023/12/25 10:50:26;;;;;;;0.63;0.63;;;12.10;1.00;;;;;;5103897;28;20176;-84
2023/12/25 10:52:53;;;;;;;0.50;0.50;;;11.90;1.00;;;;;;5104437;28;20657;-83
2023/12/25 10:55:40;;;;;;;0.60;0.60;;;12.10;1.00;;;;;;5104100;28;20178;-82
2023/12/25 10:58:08;;;;;;;0.60;0.60;;;12.20;1.00;;;;;;5104189;28;20201;-83
2023/12/25 11:00:41;;;;;;;0.50;0.50;;;12.00;1.00;;;;;;5104265;28;20234;-83
2023/12/25 11:03:07;;;;;;;0.40;0.40;;;12.30;1.00;;;;;;5105086;28;20173;-83
2023/12/25 11:05:34;;;;;;;0.60;0.60;;;13.10;1.00;;;;;;5115620;28;20169;-82
2023/12/25 11:08:00;;;;;;;0.60;0.60;;;14.50;1.00;;;;;;5110804;28;20205;-83
2023/12/25 11:10:29;;;;;;;0.43;0.43;;;16.00;1.00;;;;;;5105955;28;20252;-84
2023/12/25 11:12:56;;;;;;;0.40;0.40;;;15.90;1.00;;;;;;5106227;28;20178;-82
2023/12/25 11:15:21;;;;;;;0.40;0.40;;;17.10;1.00;;;;;;5105767;28;20186;-83
2023/12/25 11:17:48;;;;;;;0.40;0.40;;;15.20;1.00;;;;;;5106407;28;20166;-83
2023/12/25 11:20:13;;;;;;;0.40;0.40;;;14.20;1.00;;;;;;5106413;27;20230;-83
2023/12/25 11:22:40;;;;;;;0.50;0.50;;;13.50;1.00;;;;;;5106599;28;20193;-83
2023/12/25 11:25:15;;;;;;;0.47;0.47;;;12.70;1.00;;;;;;5105873;28;20174;-83
2023/12/25 11:27:42;;;;;;;0.50;0.50;;;12.40;1.00;;;;;;5114041;28;20224;-83
2023/12/25 11:30:10;;;;;;;0.50;0.50;;;12.30;1.00;;;;;;5116081;28;20499;-84
2023/12/25 11:32:36;;;;;;;0.60;0.60;;;12.10;1.00;;;;;;5119728;28;20197;-83
2023/12/25 11:35:03;;;;;;;0.60;0.60;;;11.90;1.00;;;;;;5126579;28;20214;-83
2023/12/25 11:37:29;;;;;;;0.40;0.40;;;11.60;1.00;;;;;;5126461;28;20256;-83
2023/12/25 11:39:59;;;;;;;0.50;0.50;;;11.60;1.00;;;;;;5125778;28;20691;-84
2023/12/25 11:42:29;;;;;;;0.40;0.40;;;11.60;1.00;;;;;;5127018;28;20258;-85
2023/12/25 11:44:59;;;;;;;0.53;0.53;;;11.60;1.00;;;;;;5136526;28;20248;-80
2023/12/25 11:47:29;;;;;;;0.50;0.50;;;11.70;1.00;;;;;;5136028;28;20203;-80
2023/12/25 11:49:57;;;;;;;0.50;0.50;;;11.70;1.00;;;;;;5137590;27;20191;-79
2023/12/25 11:52:45;;;;;;;0.50;0.50;;;11.70;1.00;;;;;;5137007;28;20188;-78
2023/12/25 11:55:18;;;;;;;0.50;0.50;;;11.70;1.00;;;;;;5133340;28;20191;-82
2023/12/25 11:57:44;;;;;;;0.50;0.50;;;11.70;1.00;;;;;;5124719;28;20188;-82
2023/12/25 12:00:23;;;;;;;0.40;0.40;;;11.70;30.40;;;;;;5125617;28;20181;-82
2023/12/25 12:02:49;;;;;;;0.43;0.43;;;11.70;26.40;;;;;;5124423;28;20176;-82
2023/12/25 12:05:16;;;;;;;0.67;0.67;;;11.60;99.90;;;;;;5126049;28;20191;-82
2023/12/25 12:07:45;;;;;;;0.60;0.60;;;11.60;99.90;;;;;;5126955;28;20232;-80
2023/12/25 12:10:12;;;;;;;0.57;0.57;;;11.40;99.90;;;;;;5128434;28;20181;-82
2023/12/25 12:12:38;;;;;;;0.60;0.60;;;11.40;99.90;;;;;;5127441;28;20215;-80
2023/12/25 12:15:05;;;;;;;0.60;0.60;;;11.40;99.90;;;;;;5122057;27;20196;-84
2023/12/25 12:17:32;;;;;;;0.40;0.40;;;11.40;99.90;;;;;;5122518;28;20280;-83
2023/12/25 12:19:58;;;;;;;0.50;0.50;;;11.50;99.90;;;;;;5123527;28;20179;-83
2023/12/25 12:22:24;;;;;;;0.50;0.50;;;11.50;99.90;;;;;;5125876;28;20192;-84
2023/12/25 12:24:50;;;;;;;0.60;0.60;;;11.90;99.90;;;;;;5129003;28;20666;-89
2023/12/25 12:27:19;;;;;;;0.60;0.60;;;11.60;99.90;;;;;;5118352;27;20208;-84
2023/12/25 12:29:50;;;;;;;0.60;0.60;;;11.50;99.90;;;;;;5120770;28;20173;-87
2023/12/25 12:32:17;;;;;;;0.63;0.63;;;11.50;99.90;;;;;;5112456;28;20169;-83
2023/12/25 12:34:43;;;;;;;0.63;0.63;;;11.40;99.90;;;;;;5118310;27;20558;-83
2023/12/25 12:37:09;;;;;;;0.57;0.57;;;11.40;99.90;;;;;;5108522;27;20200;-82
2023/12/25 12:39:36;;;;;;;0.60;0.60;;;11.50;99.90;;;;;;5105631;28;20188;-81
2023/12/25 12:42:11;;;;;;;0.60;0.60;;;11.50;99.90;;;;;;5120790;28;20255;-82
2023/12/25 12:44:38;;;;;;;0.70;0.70;;;11.30;99.90;;;;;;5115660;28;20180;-84
2023/12/25 12:47:07;;;;;;;0.60;0.60;;;11.40;99.90;;;;;;5117635;28;20208;-82
2023/12/25 12:49:34;;;;;;;0.50;0.50;;;11.40;99.90;;;;;;5119266;28;20238;-82
2023/12/25 12:52:03;;;;;;;0.50;0.50;;;11.80;99.90;;;;;;5123525;28;20222;-80
2023/12/25 12:54:28;;;;;;;0.60;0.60;;;11.80;99.90;;;;;;5126692;28;20181;-83
2023/12/25 12:56:54;;;;;;;0.50;0.50;;;11.70;99.90;;;;;;5126639;28;20248;-84
2023/12/25 12:59:21;;;;;;;0.63;0.63;;;11.60;99.90;;;;;;5124272;28;20222;-86